Time;durP1;ratioP1;P1;durP2;ratioP2;P2;SDS_P1;SDS_P2;PMS_P1;PMS_P2;Temp;Humidity;BMP_temperature;BMP_pressure;BME280_temperature;BME280_humidity;BME280_pressure;Samples;Min_cycle;Max_cycle;Signal;HPM_P1;HPM_P2
2021/12/28 20:58:51;;;;;;;28.80;4.65;;;;;;;;;;5124401;27;20470;-78
2021/12/28 21:01:18;;;;;;;27.90;4.82;;;;;;;;;;5104117;28;20027;-76
2021/12/28 21:03:44;;;;;;;21.48;3.88;;;;;;;;;;5106941;28;20027;-77
2021/12/28 21:06:10;;;;;;;30.00;4.05;;;;;;;;;;5097341;28;20510;-80
2021/12/28 21:08:37;;;;;;;20.05;3.80;;;;;;;;;;5095980;28;20039;-76
2021/12/28 21:11:03;;;;;;;20.73;3.70;;;;;;;;;;5117054;28;20479;-82
2021/12/28 21:13:30;;;;;;;26.95;4.38;;;;;;;;;;5097625;28;20035;-81
2021/12/28 21:15:58;;;;;;;22.67;4.07;;;;;;;;;;5104469;28;20026;-80
2021/12/28 21:18:25;;;;;;;27.95;4.57;;;;;;;;;;5112013;28;20036;-77
2021/12/28 21:20:51;;;;;;;24.58;3.80;;;;;;;;;;5109598;28;20022;-76
2021/12/28 21:23:18;;;;;;;21.00;4.30;;;;;;;;;;5110109;28;20032;-75
2021/12/28 21:25:44;;;;;;;16.00;3.67;;;;;;;;;;5109173;28;20157;-78
2021/12/28 21:28:10;;;;;;;17.90;4.07;;;;;;;;;;5108692;28;20024;-84
2021/12/28 21:30:37;;;;;;;18.70;3.55;;;;;;;;;;5107960;28;20034;-77
2021/12/28 21:33:03;;;;;;;20.42;4.88;;;;;;;;;;5103840;28;20024;-84
2021/12/28 21:35:30;;;;;;;26.30;4.30;;;;;;;;;;5117146;28;20019;-82
2021/12/28 21:37:57;;;;;;;18.38;3.55;;;;;;;;;;5111521;28;20020;-83
2021/12/28 21:40:26;;;;;;;21.40;3.60;;;;;;;;;;5110671;28;20016;-82
2021/12/28 21:42:53;;;;;;;23.13;4.20;;;;;;;;;;5109096;28;20029;-87
2021/12/28 21:45:22;;;;;;;16.40;3.90;;;;;;;;;;5115189;28;20039;-83
2021/12/28 21:47:49;;;;;;;21.95;4.28;;;;;;;;;;5115778;28;20050;-87
2021/12/28 21:50:16;;;;;;;17.63;3.95;;;;;;;;;;5110490;28;20024;-80
2021/12/28 21:52:47;;;;;;;19.15;3.72;;;;;;;;;;5110973;28;20027;-81
2021/12/28 21:55:14;;;;;;;16.45;3.53;;;;;;;;;;5113535;28;20601;-78
2021/12/28 21:57:40;;;;;;;16.13;3.35;;;;;;;;;;5113539;28;20469;-83
2021/12/28 22:00:12;;;;;;;19.52;3.85;;;;;;;;;;5103791;28;20467;-79
2021/12/28 22:02:38;;;;;;;17.48;3.72;;;;;;;;;;5100922;28;20031;-79
2021/12/28 22:05:08;;;;;;;19.73;3.60;;;;;;;;;;5105349;28;20023;-83
2021/12/28 22:07:35;;;;;;;14.35;3.30;;;;;;;;;;5113743;28;20049;-80
2021/12/28 22:10:02;;;;;;;22.70;3.75;;;;;;;;;;5097876;28;20085;-82
2021/12/28 22:12:28;;;;;;;18.88;3.42;;;;;;;;;;5101095;28;20038;-78
2021/12/28 22:14:57;;;;;;;19.48;3.97;;;;;;;;;;5097056;28;20252;-82
2021/12/28 22:17:23;;;;;;;14.45;3.20;;;;;;;;;;5101304;28;20040;-79
2021/12/28 22:19:49;;;;;;;14.27;3.92;;;;;;;;;;5095886;28;20024;-80
2021/12/28 22:22:15;;;;;;;21.02;3.70;;;;;;;;;;5092441;28;20039;-76
2021/12/28 22:24:43;;;;;;;20.08;3.72;;;;;;;;;;5082511;28;20511;-78
2021/12/28 22:27:10;;;;;;;24.73;4.38;;;;;;;;;;5098734;27;20032;-77
2021/12/28 22:29:38;;;;;;;28.45;4.43;;;;;;;;;;5088071;28;20165;-79
2021/12/28 22:32:05;;;;;;;19.83;3.78;;;;;;;;;;5093044;28;20028;-85
2021/12/28 22:34:31;;;;;;;20.77;4.10;;;;;;;;;;5090006;28;20028;-85
2021/12/28 22:36:59;;;;;;;22.38;4.57;;;;;;;;;;5092439;28;20036;-79
2021/12/28 22:39:28;;;;;;;17.48;4.28;;;;;;;;;;5099282;28;20020;-77
2021/12/28 22:41:55;;;;;;;22.35;4.65;;;;;;;;;;5095527;28;20119;-80
2021/12/28 22:44:21;;;;;;;22.58;5.55;;;;;;;;;;5092081;28;20032;-81
2021/12/28 22:46:56;;;;;;;26.13;6.03;;;;;;;;;;5098403;28;20023;-80
2021/12/28 22:49:23;;;;;;;27.23;5.63;;;;;;;;;;5095509;28;20024;-81
2021/12/28 22:51:49;;;;;;;28.40;5.82;;;;;;;;;;5097407;28;20032;-82
2021/12/28 22:54:15;;;;;;;23.30;4.55;;;;;;;;;;5081733;28;20025;-81
2021/12/28 22:56:41;;;;;;;17.92;4.38;;;;;;;;;;5098803;28;20036;-84
2021/12/28 22:59:07;;;;;;;26.05;4.57;;;;;;;;;;5096785;28;20024;-77
2021/12/28 23:01:34;;;;;;;25.55;3.55;;;;;;;;;;5090534;28;20074;-81
2021/12/28 23:04:00;;;;;;;19.95;4.40;;;;;;;;;;5089975;28;20031;-86
2021/12/28 23:06:26;;;;;;;17.25;3.95;;;;;;;;;;5088581;28;20036;-83
2021/12/28 23:08:56;;;;;;;17.98;3.88;;;;;;;;;;5096427;28;20032;-85
2021/12/28 23:11:22;;;;;;;27.98;4.13;;;;;;;;;;5100465;28;20076;-80
2021/12/28 23:13:48;;;;;;;19.25;3.55;;;;;;;;;;5097454;28;20031;-82
2021/12/28 23:16:14;;;;;;;22.15;4.55;;;;;;;;;;5097918;28;20020;-82
2021/12/28 23:18:40;;;;;;;17.75;4.32;;;;;;;;;;5098102;28;20101;-81
2021/12/28 23:21:07;;;;;;;22.25;3.95;;;;;;;;;;5097895;28;20016;-77
2021/12/28 23:23:33;;;;;;;19.15;3.92;;;;;;;;;;5101118;28;20089;-78
2021/12/28 23:26:00;;;;;;;21.20;3.35;;;;;;;;;;5096269;28;20024;-79
2021/12/28 23:28:27;;;;;;;26.45;4.50;;;;;;;;;;5099408;28;20059;-84
2021/12/28 23:30:54;;;;;;;22.42;3.90;;;;;;;;;;5095269;28;20068;-84
